Time;durP1;ratioP1;P1;durP2;ratioP2;P2;SDS_P1;SDS_P2;PMS_P1;PMS_P2;Temp;Humidity;BMP_temperature;BMP_pressure;BME280_temperature;BME280_humidity;BME280_pressure;Samples;Min_cycle;Max_cycle;Signal;HPM_P1;HPM_P2
2023/07/07 00:00:39;;;;;;;5.07;2.97;;;;;;;12.20;95.98;98724.81;2608890;28;20080;-86
2023/07/07 00:02:15;;;;;;;4.90;3.03;;;;;;;11.97;100.00;98720.22;2608781;28;20466;-86
2023/07/07 00:03:30;;;;;;;4.63;3.30;;;;;;;12.08;100.00;98722.56;2608966;28;20103;-86
2023/07/07 00:04:46;;;;;;;4.13;3.05;;;;;;;12.06;100.00;98719.13;2608734;28;20077;-86
2023/07/07 00:06:02;;;;;;;5.15;3.20;;;;;;;12.09;100.00;98722.53;2608949;28;20783;-87
2023/07/07 00:07:18;;;;;;;4.75;3.13;;;;;;;11.98;100.00;98720.16;2608670;28;20056;-86
2023/07/07 00:08:34;;;;;;;5.80;3.30;;;;;;;12.07;99.12;98720.84;2608605;28;20045;-85
2023/07/07 00:09:49;;;;;;;5.13;3.20;;;;;;;12.06;99.16;98719.13;2608975;28;20111;-86
2023/07/07 00:11:05;;;;;;;4.70;3.08;;;;;;;12.09;98.59;98726.91;2608793;28;20049;-86
2023/07/07 00:12:20;;;;;;;4.40;3.10;;;;;;;12.04;99.07;98720.94;2608836;28;20421;-86
2023/07/07 00:13:36;;;;;;;4.07;3.10;;;;;;;12.04;99.32;98721.78;2608812;28;20056;-86
2023/07/07 00:14:52;;;;;;;4.55;2.95;;;;;;;12.06;99.44;98724.38;2608917;28;20095;-85
2023/07/07 00:16:07;;;;;;;5.95;3.17;;;;;;;12.02;99.78;98726.22;2608862;28;20462;-85
2023/07/07 00:17:24;;;;;;;7.57;3.47;;;;;;;12.06;99.29;98724.38;2608797;28;20386;-86
2023/07/07 00:18:40;;;;;;;5.13;3.22;;;;;;;12.11;97.92;98722.47;2608859;28;20131;-85
2023/07/07 00:19:56;;;;;;;5.00;3.38;;;;;;;12.08;99.32;98727.81;2608590;28;20037;-85
2023/07/07 00:21:11;;;;;;;6.30;3.20;;;;;;;12.07;99.61;98726.09;2607893;28;20227;-86
2023/07/07 00:22:27;;;;;;;4.75;3.13;;;;;;;12.08;99.74;98727.81;2607862;28;20424;-86
2023/07/07 00:23:42;;;;;;;4.75;3.47;;;;;;;12.14;99.38;98722.38;2608497;28;20488;-86
2023/07/07 00:24:58;;;;;;;3.38;2.78;;;;;;;12.10;99.38;98728.63;2608721;28;20088;-86
2023/07/07 00:26:13;;;;;;;3.58;3.03;;;;;;;11.81;100.00;98728.53;2608334;28;20493;-86
2023/07/07 00:27:29;;;;;;;3.83;2.95;;;;;;;12.07;99.14;98724.31;2608783;28;20053;-87
2023/07/07 00:28:45;;;;;;;4.38;3.35;;;;;;;12.09;100.00;98726.91;2609112;28;20052;-86
2023/07/07 00:30:02;;;;;;;5.68;3.15;;;;;;;11.91;100.00;98723.88;2608776;28;20080;-86
2023/07/07 00:31:20;;;;;;;5.45;3.50;;;;;;;11.96;100.00;98724.59;2608544;28;20048;-86
2023/07/07 00:32:36;;;;;;;6.00;3.42;;;;;;;11.87;100.00;98728.34;2608581;28;20128;-86
2023/07/07 00:33:51;;;;;;;5.63;3.60;;;;;;;11.96;100.00;98727.22;2608738;28;20045;-86
2023/07/07 00:35:07;;;;;;;6.68;3.33;;;;;;;12.04;100.00;98728.81;2608654;28;20519;-86
2023/07/07 00:36:23;;;;;;;6.00;3.50;;;;;;;12.01;100.00;98727.09;2608569;28;20053;-86
2023/07/07 00:37:39;;;;;;;3.38;2.90;;;;;;;11.95;100.00;98725.50;2608654;28;20056;-86
2023/07/07 00:38:54;;;;;;;4.63;3.05;;;;;;;11.99;100.00;98724.50;2608884;28;20048;-86
2023/07/07 00:40:11;;;;;;;5.85;3.30;;;;;;;11.90;100.00;98729.16;2608916;28;20077;-87
2023/07/07 00:41:28;;;;;;;6.45;3.58;;;;;;;11.85;100.00;98724.91;2608433;28;20458;-86
2023/07/07 00:42:43;;;;;;;5.32;3.38;;;;;;;12.03;100.00;98729.72;2609075;28;20093;-86
2023/07/07 00:44:11;;;;;;;4.72;3.00;;;;;;;11.89;100.00;98728.31;2608940;28;20464;-86
2023/07/07 00:45:26;;;;;;;4.65;3.33;;;;;;;12.02;99.90;98728.00;2608813;28;20060;-86
2023/07/07 00:46:42;;;;;;;6.03;3.40;;;;;;;12.00;100.00;98726.22;2608221;28;20170;-86
2023/07/07 00:48:01;;;;;;;5.72;3.53;;;;;;;11.80;100.00;98739.06;2608401;28;20056;-86
2023/07/07 00:49:20;;;;;;;5.30;3.10;;;;;;;11.59;100.00;98733.50;2608736;28;20044;-86
2023/07/07 00:50:42;;;;;;;4.32;3.13;;;;;;;11.61;100.00;98736.97;2608486;28;20091;-86
2023/07/07 00:52:02;;;;;;;4.88;3.25;;;;;;;11.77;100.00;98737.38;2607918;28;20128;-86
2023/07/07 00:53:18;;;;;;;4.22;3.15;;;;;;;11.65;100.00;98740.34;2608090;28;20036;-86
2023/07/07 00:54:35;;;;;;;5.07;3.58;;;;;;;11.50;100.00;98746.88;2608535;28;20526;-86
2023/07/07 00:55:58;;;;;;;5.15;3.35;;;;;;;11.58;100.00;98735.28;2608456;28;20076;-86
2023/07/07 00:57:14;;;;;;;3.97;3.13;;;;;;;11.28;100.00;98739.56;2608593;28;20045;-86
2023/07/07 00:58:31;;;;;;;6.82;3.13;;;;;;;11.47;100.00;98742.56;2608914;28;20041;-86
2023/07/07 00:59:47;;;;;;;7.18;3.45;;;;;;;11.34;100.00;98736.81;2608220;28;20945;-86
2023/07/07 01:01:12;;;;;;;5.10;3.40;;;;;;;11.33;100.00;98745.56;2608329;28;20068;-86
2023/07/07 01:02:28;;;;;;;4.38;3.03;;;;;;;11.51;100.00;98743.34;2608628;28;20128;-86
2023/07/07 01:03:56;;;;;;;5.10;3.30;;;;;;;11.54;100.00;98745.88;2608783;28;20071;-86
2023/07/07 01:05:12;;;;;;;6.95;3.13;;;;;;;11.61;100.00;98742.22;2608367;28;20124;-86
2023/07/07 01:06:31;;;;;;;5.68;3.72;;;;;;;11.62;100.00;98749.19;2608371;28;20049;-86
2023/07/07 01:07:51;;;;;;;4.70;3.33;;;;;;;11.69;100.00;98750.72;2608459;28;20057;-86
2023/07/07 01:09:11;;;;;;;4.47;3.35;;;;;;;11.72;100.00;98750.63;2608313;28;20507;-86
2023/07/07 01:10:26;;;;;;;4.47;3.25;;;;;;;11.55;100.00;98755.47;2608460;28;20127;-86
2023/07/07 01:11:46;;;;;;;5.18;3.20;;;;;;;11.51;100.00;98759.09;2608641;28;20550;-86
2023/07/07 01:13:04;;;;;;;4.75;3.22;;;;;;;11.65;100.00;98756.06;2608554;28;20044;-86
2023/07/07 01:14:25;;;;;;;4.05;2.92;;;;;;;11.65;100.00;98759.56;2608265;28;20088;-86
2023/07/07 01:16:15;;;;;;;5.50;3.13;;;;;;;11.54;100.00;98756.38;2608205;28;20053;-86
2023/07/07 01:17:52;;;;;;;6.50;3.40;;;;;;;11.55;100.00;98760.72;2608392;28;20555;-86
2023/07/07 01:20:00;;;;;;;4.82;3.42;;;;;;;11.46;100.00;98750.50;2608284;28;20956;-86
2023/07/07 01:21:40;;;;;;;6.07;3.42;;;;;;;11.56;100.00;98754.56;2608226;28;20128;-86
2023/07/07 01:23:14;;;;;;;5.03;3.22;;;;;;;11.62;100.00;98751.78;2608315;28;20087;-87
2023/07/07 01:24:35;;;;;;;5.88;3.53;;;;;;;11.63;100.00;98753.50;2608431;28;20618;-86
2023/07/07 01:26:09;;;;;;;4.30;3.10;;;;;;;11.59;100.00;98751.84;2608222;28;20080;-86
2023/07/07 01:27:46;;;;;;;7.93;3.08;;;;;;;11.44;100.00;98755.75;2608556;28;20160;-86
2023/07/07 01:29:16;;;;;;;5.15;3.25;;;;;;;11.34;100.00;98755.16;2608128;28;20575;-86
2023/07/07 01:30:46;;;;;;;5.20;3.35;;;;;;;11.32;100.00;98753.47;2608321;28;20475;-86
2023/07/07 01:32:09;;;;;;;4.68;3.63;;;;;;;11.11;100.00;98753.13;2608891;28;20052;-86
2023/07/07 01:33:29;;;;;;;4.05;3.42;;;;;;;11.04;100.00;98757.66;2610515;28;20056;-86
2023/07/07 01:34:47;;;;;;;4.78;3.25;;;;;;;10.97;100.00;98756.94;2609804;28;20144;-86
2023/07/07 01:36:02;;;;;;;6.78;3.05;;;;;;;10.99;100.00;98759.50;2610398;28;20522;-86
2023/07/07 01:37:18;;;;;;;4.90;2.95;;;;;;;10.98;100.00;98763.91;2610403;28;20060;-85
2023/07/07 01:38:36;;;;;;;5.00;3.35;;;;;;;10.90;100.00;98762.38;2610284;28;20457;-86
2023/07/07 01:39:53;;;;;;;4.50;3.33;;;;;;;10.91;100.00;98759.69;2609524;28;20393;-86
2023/07/07 01:41:39;;;;;;;4.55;3.15;;;;;;;10.94;100.00;98766.63;2609834;28;20052;-86
2023/07/07 01:43:01;;;;;;;4.43;3.20;;;;;;;10.78;100.00;98763.50;2610014;28;20053;-86
2023/07/07 01:44:29;;;;;;;;;;;;;;;10.71;100.00;98768.03;2610870;28;20041;-85
2023/07/07 01:45:55;;;;;;;4.50;2.58;;;;;;;10.67;100.00;98766.38;2610310;28;19947;-86
2023/07/07 01:47:17;;;;;;;4.72;3.10;;;;;;;10.63;100.00;98762.13;2610287;28;20053;-85
2023/07/07 01:48:45;;;;;;;5.95;3.28;;;;;;;10.45;100.00;98766.88;2598732;28;20057;-85
2023/07/07 01:50:06;;;;;;;6.18;3.40;;;;;;;10.67;100.00;98761.16;2605171;28;20155;-85
2023/07/07 01:51:25;;;;;;;4.55;2.80;;;;;;;10.58;100.00;98765.69;2610104;28;20080;-86
2023/07/07 01:52:53;;;;;;;6.15;3.13;;;;;;;10.58;100.00;98765.69;2610019;28;20556;-86
2023/07/07 01:54:12;;;;;;;5.35;3.28;;;;;;;10.60;100.00;98763.06;2609346;28;20114;-85
2023/07/07 01:55:34;;;;;;;7.35;3.72;;;;;;;10.54;100.00;98769.28;2609741;28;20552;-85
2023/07/07 01:56:53;;;;;;;4.35;2.95;;;;;;;10.70;100.00;98758.47;2610007;28;20059;-86
2023/07/07 01:58:11;;;;;;;5.05;3.40;;;;;;;10.44;100.00;98757.28;2609837;28;20496;-85
2023/07/07 01:59:30;;;;;;;5.47;3.63;;;;;;;10.47;100.00;98753.75;2609955;28;20061;-85
2023/07/07 02:00:49;;;;;;;7.25;3.80;;;;;;;10.44;100.00;98759.91;2610437;28;20045;-85
2023/07/07 02:02:05;;;;;;;4.43;3.67;;;;;;;10.45;100.00;98753.78;2609804;28;20135;-86
2023/07/07 02:03:22;;;;;;;5.10;3.42;;;;;;;10.62;100.00;98765.66;2609878;28;20127;-85
2023/07/07 02:04:38;;;;;;;4.72;3.40;;;;;;;10.67;100.00;98755.91;2610113;28;20111;-85
2023/07/07 02:05:53;;;;;;;5.72;3.63;;;;;;;10.79;100.00;98760.00;2609975;28;20049;-86
2023/07/07 02:07:09;;;;;;;5.53;3.50;;;;;;;10.82;100.00;98765.16;2609557;28;20059;-86
2023/07/07 02:08:24;;;;;;;5.88;3.40;;;;;;;10.85;100.00;98759.88;2610071;28;20059;-85
2023/07/07 02:09:40;;;;;;;7.97;3.78;;;;;;;10.83;100.00;98761.66;2610031;28;20128;-85
2023/07/07 02:10:56;;;;;;;5.53;3.72;;;;;;;10.94;100.00;98758.78;2609963;28;20041;-85
2023/07/07 02:12:11;;;;;;;5.45;3.45;;;;;;;10.96;100.00;98764.84;2609638;28;20045;-85
2023/07/07 02:13:27;;;;;;;4.95;2.92;;;;;;;10.87;100.00;98763.31;2610092;28;20053;-85
2023/07/07 02:14:42;;;;;;;5.80;3.70;;;;;;;10.77;100.00;98764.41;2609944;28;20059;-85
2023/07/07 02:15:58;;;;;;;6.07;3.67;;;;;;;10.76;100.00;98766.19;2609854;28;20056;-85
2023/07/07 02:17:15;;;;;;;5.57;3.15;;;;;;;10.82;100.00;98760.78;2609924;28;20053;-85
2023/07/07 02:18:31;;;;;;;6.32;3.40;;;;;;;10.78;100.00;98764.38;2609853;28;20057;-85
2023/07/07 02:19:46;;;;;;;5.25;3.63;;;;;;;10.79;100.00;98760.88;2609960;28;20119;-85
2023/07/07 02:21:02;;;;;;;4.80;3.40;;;;;;;10.74;100.00;98767.94;2609626;28;20060;-86
2023/07/07 02:22:18;;;;;;;4.80;3.53;;;;;;;10.57;100.00;98771.81;2609795;28;20060;-85
2023/07/07 02:23:34;;;;;;;5.50;3.47;;;;;;;10.39;100.00;98761.75;2609760;28;20049;-86
2023/07/07 02:24:49;;;;;;;5.75;3.28;;;;;;;10.39;100.00;98756.50;2610069;28;20055;-86
2023/07/07 02:26:05;;;;;;;5.13;3.20;;;;;;;10.32;100.00;98761.88;2609670;28;20052;-86
2023/07/07 02:27:20;;;;;;;5.10;3.25;;;;;;;10.42;100.00;98756.47;2609752;28;20048;-86
2023/07/07 02:28:36;;;;;;;4.28;3.40;;;;;;;10.40;100.00;98761.69;2609765;28;20501;-85
2023/07/07 02:29:51;;;;;;;6.05;3.75;;;;;;;10.57;100.00;98763.97;2609985;28;20041;-85
2023/07/07 02:31:10;;;;;;;4.35;3.20;;;;;;;10.62;100.00;98763.03;2609597;28;20123;-85
2023/07/07 02:32:26;;;;;;;8.25;3.53;;;;;;;10.70;100.00;98766.31;2609672;28;20088;-85
2023/07/07 02:33:42;;;;;;;4.40;3.20;;;;;;;10.59;100.00;98758.72;2609828;28;20045;-85
2023/07/07 02:35:02;;;;;;;6.47;3.30;;;;;;;10.66;100.00;98762.06;2609710;28;20114;-85
2023/07/07 02:36:18;;;;;;;4.93;3.20;;;;;;;10.57;100.00;98763.97;2609609;28;20049;-85
2023/07/07 02:37:34;;;;;;;6.88;3.60;;;;;;;10.67;100.00;98772.47;2609848;28;20072;-85
2023/07/07 02:38:50;;;;;;;7.63;3.30;;;;;;;10.68;100.00;98768.13;2609745;28;20048;-85
2023/07/07 02:40:06;;;;;;;5.47;3.72;;;;;;;10.73;100.00;98767.13;2609811;28;20052;-85
2023/07/07 02:41:22;;;;;;;4.53;3.30;;;;;;;10.76;100.00;98765.31;2609409;28;20068;-86
2023/07/07 02:42:38;;;;;;;5.82;3.65;;;;;;;10.63;100.00;98770.81;2608936;28;20056;-86
2023/07/07 02:43:53;;;;;;;8.05;3.60;;;;;;;10.68;100.00;98765.50;2608541;28;20048;-85
2023/07/07 02:45:09;;;;;;;4.68;2.92;;;;;;;10.73;100.00;98771.47;2609552;28;20056;-85
2023/07/07 02:46:25;;;;;;;7.03;3.55;;;;;;;10.66;100.00;98764.66;2609545;28;20041;-85
2023/07/07 02:47:41;;;;;;;5.13;3.08;;;;;;;10.53;100.00;98769.31;2609489;28;20664;-86
2023/07/07 02:48:56;;;;;;;4.85;3.25;;;;;;;10.45;100.00;98772.09;2609725;28;20130;-85
2023/07/07 02:50:12;;;;;;;5.45;3.50;;;;;;;10.31;100.00;98773.22;2609239;28;20148;-86
2023/07/07 02:51:27;;;;;;;5.50;3.53;;;;;;;10.30;100.00;98765.44;2609607;28;20060;-85
2023/07/07 02:52:43;;;;;;;5.00;3.63;;;;;;;10.39;100.00;98773.06;2609980;28;20049;-86
2023/07/07 02:53:58;;;;;;;6.38;3.33;;;;;;;10.37;100.00;98771.41;2609705;28;20044;-86
2023/07/07 02:55:14;;;;;;;4.60;3.55;;;;;;;10.32;100.00;98776.72;2609320;28;20037;-85
2023/07/07 02:56:30;;;;;;;6.55;3.45;;;;;;;10.37;100.00;98763.53;2609500;28;20053;-85
2023/07/07 02:57:45;;;;;;;4.50;3.40;;;;;;;10.54;100.00;98771.91;2609761;28;20049;-86
2023/07/07 02:59:01;;;;;;;5.20;3.45;;;;;;;10.59;100.00;98779.66;2609224;28;20133;-85
2023/07/07 03:00:17;;;;;;;4.50;3.63;;;;;;;10.54;100.00;98774.53;2609320;28;20072;-85
2023/07/07 03:01:32;;;;;;;4.97;3.47;;;;;;;10.37;100.00;98776.63;2609158;28;20525;-86
2023/07/07 03:02:48;;;;;;;6.57;3.45;;;;;;;10.22;100.00;98775.19;2609680;28;20080;-86
2023/07/07 03:04:04;;;;;;;4.88;3.22;;;;;;;10.10;100.00;98781.56;2609478;28;20056;-86
2023/07/07 03:05:20;;;;;;;4.55;3.20;;;;;;;10.00;100.00;98784.34;2609226;28;20528;-85
2023/07/07 03:06:35;;;;;;;4.35;3.20;;;;;;;9.93;100.00;98780.13;2609671;28;20053;-85
2023/07/07 03:07:51;;;;;;;5.18;3.28;;;;;;;9.99;100.00;98781.78;2609608;28;20049;-85
2023/07/07 03:09:07;;;;;;;4.03;3.22;;;;;;;10.06;100.00;98785.09;2609274;28;20056;-85
2023/07/07 03:10:22;;;;;;;7.22;3.15;;;;;;;10.10;100.00;98785.00;2608433;28;20049;-85
2023/07/07 03:11:38;;;;;;;5.53;3.45;;;;;;;10.16;100.00;98790.13;2608801;28;20053;-85
2023/07/07 03:12:54;;;;;;;4.88;3.47;;;;;;;10.18;100.00;98797.94;2609499;28;20132;-85
2023/07/07 03:14:09;;;;;;;7.28;3.35;;;;;;;10.12;100.00;98790.22;2609245;28;20041;-86
2023/07/07 03:15:38;;;;;;;7.68;3.45;;;;;;;10.12;100.00;98798.06;2609328;28;20048;-85
2023/07/07 03:16:56;;;;;;;5.40;3.47;;;;;;;10.19;100.00;98797.03;2609469;28;20068;-85
2023/07/07 03:18:14;;;;;;;6.13;3.35;;;;;;;10.23;100.00;98795.22;2609390;28;20500;-85
2023/07/07 03:19:29;;;;;;;4.80;3.33;;;;;;;10.31;100.00;98795.94;2609232;28;20049;-85
2023/07/07 03:20:49;;;;;;;5.70;3.30;;;;;;;10.18;100.00;98797.94;2609046;28;20102;-85
2023/07/07 03:22:05;;;;;;;5.13;3.83;;;;;;;10.20;100.00;98797.91;2609454;28;20077;-86
2023/07/07 03:23:20;;;;;;;5.43;3.17;;;;;;;10.16;100.00;98797.97;2609142;28;20049;-85
2023/07/07 03:24:36;;;;;;;3.80;3.17;;;;;;;10.17;100.00;98802.31;2609240;28;20106;-85
2023/07/07 03:25:52;;;;;;;5.85;3.10;;;;;;;10.21;100.00;98797.03;2609324;28;20048;-85
2023/07/07 03:27:07;;;;;;;7.55;3.90;;;;;;;10.28;100.00;98793.41;2609243;28;20060;-85
2023/07/07 03:28:23;;;;;;;9.80;3.40;;;;;;;10.17;100.00;98798.81;2609187;28;20107;-85
2023/07/07 03:29:38;;;;;;;5.97;3.67;;;;;;;10.28;100.00;98804.72;2609115;28;20048;-85
2023/07/07 03:30:54;;;;;;;6.05;3.92;;;;;;;10.39;100.00;98803.63;2609108;28;20140;-85
2023/07/07 03:32:09;;;;;;;4.35;3.30;;;;;;;10.28;100.00;98809.94;2609225;28;20048;-85
2023/07/07 03:33:25;;;;;;;5.47;3.78;;;;;;;10.24;100.00;98810.91;2609211;28;20318;-85
2023/07/07 03:34:41;;;;;;;6.05;3.50;;;;;;;10.31;100.00;98809.88;2608328;28;20351;-85
2023/07/07 03:35:57;;;;;;;6.20;4.13;;;;;;;10.21;100.00;98808.34;2608714;28;20089;-87
2023/07/07 03:37:13;;;;;;;5.15;3.60;;;;;;;10.17;100.00;98817.16;2609209;28;20048;-86
2023/07/07 03:38:28;;;;;;;5.97;3.30;;;;;;;10.09;100.00;98814.69;2609074;28;20053;-85
2023/07/07 03:39:44;;;;;;;8.57;4.20;;;;;;;10.27;100.00;98816.06;2609117;28;20052;-85
2023/07/07 03:40:59;;;;;;;6.55;3.70;;;;;;;10.31;100.00;98819.50;2609010;28;20037;-87
2023/07/07 03:42:15;;;;;;;4.82;3.67;;;;;;;10.42;100.00;98819.28;2609116;28;20041;-85
2023/07/07 03:43:33;;;;;;;7.03;3.70;;;;;;;10.51;100.00;98816.50;2609034;28;20049;-85
2023/07/07 03:44:49;;;;;;;5.10;3.42;;;;;;;10.54;100.00;98818.16;2609103;28;20049;-85
2023/07/07 03:46:05;;;;;;;5.32;3.58;;;;;;;10.56;100.00;98825.09;2608845;28;20055;-85
2023/07/07 03:47:21;;;;;;;6.20;3.90;;;;;;;10.63;100.00;98822.34;2608606;28;20464;-86
2023/07/07 03:48:36;;;;;;;5.65;3.25;;;;;;;10.63;100.00;98827.59;2608825;28;20103;-85
2023/07/07 03:49:52;;;;;;;4.60;3.53;;;;;;;10.69;100.00;98827.44;2609087;28;20412;-85
2023/07/07 03:51:08;;;;;;;4.30;3.30;;;;;;;10.66;100.00;98830.97;2609148;28;20131;-85
2023/07/07 03:52:24;;;;;;;5.07;3.70;;;;;;;10.61;100.00;98827.63;2609009;28;20132;-85
2023/07/07 03:53:41;;;;;;;7.90;4.00;;;;;;;10.58;100.00;98820.69;2608776;28;20045;-85
2023/07/07 03:54:56;;;;;;;5.20;3.80;;;;;;;10.62;100.00;98824.09;2608662;28;20098;-86
2023/07/07 03:56:13;;;;;;;7.93;3.97;;;;;;;10.64;100.00;98824.91;2608990;28;20107;-86
2023/07/07 03:57:29;;;;;;;4.88;3.58;;;;;;;10.64;100.00;98824.91;2608784;28;20059;-86
2023/07/07 03:58:44;;;;;;;8.90;4.15;;;;;;;10.76;100.00;98823.81;2608810;28;20515;-85
2023/07/07 04:00:00;;;;;;;5.40;3.80;;;;;;;10.77;100.00;98832.50;2609174;28;20057;-85
2023/07/07 04:01:15;;;;;;;6.97;3.38;;;;;;;10.80;100.00;98828.06;2608723;28;20056;-85
2023/07/07 04:02:31;;;;;;;8.25;3.88;;;;;;;10.81;100.00;98826.28;2608435;28;20076;-85
2023/07/07 04:03:47;;;;;;;6.05;3.72;;;;;;;10.79;100.00;98826.34;2608787;28;20052;-85
2023/07/07 04:05:02;;;;;;;4.30;3.40;;;;;;;10.83;100.00;98829.75;2609042;28;20060;-85
2023/07/07 04:06:19;;;;;;;4.80;3.50;;;;;;;10.84;100.00;98827.09;2608810;28;20059;-85
2023/07/07 04:07:34;;;;;;;5.40;3.50;;;;;;;10.82;100.00;98823.66;2608842;28;20052;-85
2023/07/07 04:08:50;;;;;;;6.55;3.70;;;;;;;10.85;100.00;98827.97;2608828;28;20089;-85
2023/07/07 04:10:06;;;;;;;6.82;4.03;;;;;;;10.92;100.00;98826.91;2609017;28;20094;-85
2023/07/07 04:11:23;;;;;;;6.93;3.60;;;;;;;10.98;100.00;98828.53;2608544;28;20044;-85
2023/07/07 04:12:38;;;;;;;5.53;3.50;;;;;;;11.02;100.00;98835.41;2608648;28;20045;-85
2023/07/07 04:13:54;;;;;;;5.22;3.05;;;;;;;10.99;100.00;98831.13;2608529;28;20694;-86
2023/07/07 04:15:09;;;;;;;6.55;3.65;;;;;;;11.06;100.00;98831.84;2608976;28;20512;-85
2023/07/07 04:16:26;;;;;;;7.00;4.00;;;;;;;11.08;100.00;98831.78;2608413;28;20052;-85
2023/07/07 04:17:41;;;;;;;6.65;4.00;;;;;;;11.13;100.00;98832.56;2608552;28;20555;-84
2023/07/07 04:18:57;;;;;;;6.65;4.10;;;;;;;11.19;100.00;98827.16;2608827;28;20053;-85
2023/07/07 04:20:12;;;;;;;6.10;3.80;;;;;;;11.21;100.00;98835.00;2608704;28;20393;-84
2023/07/07 04:21:30;;;;;;;7.15;4.57;;;;;;;11.23;100.00;98834.03;2608544;28;20530;-84
2023/07/07 04:22:45;;;;;;;6.35;3.92;;;;;;;11.27;100.00;98837.44;2608432;28;20053;-84
2023/07/07 04:24:04;;;;;;;5.95;4.20;;;;;;;11.23;100.00;98834.03;2608928;28;20439;-84
2023/07/07 04:25:20;;;;;;;5.28;3.58;;;;;;;11.34;100.00;98846.03;2608595;28;20041;-84
2023/07/07 04:26:38;;;;;;;7.65;4.00;;;;;;;11.44;100.00;98842.28;2608426;28;20083;-84
2023/07/07 04:27:53;;;;;;;9.02;4.25;;;;;;;11.45;100.00;98844.00;2608576;28;20044;-84
2023/07/07 04:29:09;;;;;;;7.57;4.47;;;;;;;11.49;100.00;98853.50;2608966;28;20384;-83
2023/07/07 04:30:24;;;;;;;7.20;3.67;;;;;;;11.47;100.00;98849.22;2608704;28;20068;-84
2023/07/07 04:31:45;;;;;;;7.97;4.03;;;;;;;11.54;100.00;98850.78;2608698;28;20052;-84
2023/07/07 04:33:00;;;;;;;6.25;4.47;;;;;;;11.51;100.00;98854.31;2608691;28;20063;-84
2023/07/07 04:34:16;;;;;;;5.85;4.15;;;;;;;11.52;100.00;98849.97;2608597;28;20048;-84
2023/07/07 04:35:38;;;;;;;8.05;4.28;;;;;;;11.59;100.00;98846.25;2608546;28;20078;-84
2023/07/07 04:36:53;;;;;;;6.65;4.30;;;;;;;11.61;100.00;98849.72;2608461;28;20420;-84
2023/07/07 04:38:10;;;;;;;8.88;3.67;;;;;;;11.57;100.00;98851.56;2608631;28;20053;-84
2023/07/07 04:39:25;;;;;;;7.20;4.38;;;;;;;11.61;100.00;98857.59;2608797;28;20053;-84
2023/07/07 04:40:41;;;;;;;6.97;4.35;;;;;;;11.69;100.00;98855.63;2608468;28;20140;-84
2023/07/07 04:41:56;;;;;;;7.65;4.28;;;;;;;11.61;100.00;98849.72;2608529;28;20040;-84
2023/07/07 04:43:12;;;;;;;8.02;4.38;;;;;;;11.57;100.00;98858.56;2608581;28;20114;-84
2023/07/07 04:44:28;;;;;;;5.53;3.72;;;;;;;11.72;100.00;98852.06;2603580;28;20353;-84
2023/07/07 04:45:44;;;;;;;7.57;3.95;;;;;;;11.89;100.00;98856.88;2605737;28;20095;-84
2023/07/07 04:47:00;;;;;;;5.45;4.00;;;;;;;11.91;100.00;98852.44;2608494;28;20056;-84
2023/07/07 04:48:15;;;;;;;5.93;3.85;;;;;;;12.04;100.00;98855.63;2608805;28;20474;-86
2023/07/07 04:49:30;;;;;;;5.90;4.30;;;;;;;12.09;100.00;98855.50;2608691;28;20065;-84
2023/07/07 04:50:46;;;;;;;5.88;4.28;;;;;;;12.00;100.00;98849.56;2608497;28;20129;-84
2023/07/07 04:52:02;;;;;;;5.63;4.07;;;;;;;11.98;100.00;98854.00;2608489;28;20419;-84
2023/07/07 04:53:17;;;;;;;5.38;3.90;;;;;;;12.06;100.00;98858.22;2608803;28;20072;-84
2023/07/07 04:54:35;;;;;;;5.38;3.92;;;;;;;12.15;100.00;98855.31;2608604;28;20396;-85
2023/07/07 04:55:51;;;;;;;6.38;4.18;;;;;;;12.31;100.00;98849.66;2608179;28;20079;-84
2023/07/07 04:57:06;;;;;;;5.05;3.58;;;;;;;12.18;100.00;98854.38;2608643;28;20500;-84
2023/07/07 04:58:23;;;;;;;5.43;3.80;;;;;;;12.25;100.00;98851.53;2608780;28;20049;-84
2023/07/07 04:59:38;;;;;;;6.15;4.28;;;;;;;12.39;100.00;98858.16;2608439;28;20512;-85
2023/07/07 05:01:15;;;;;;;5.93;3.88;;;;;;;12.53;100.00;98856.00;2608523;28;20049;-85
2023/07/07 05:02:33;;;;;;;6.28;4.05;;;;;;;12.56;100.00;98855.06;2608558;28;20044;-84
2023/07/07 05:03:54;;;;;;;5.88;4.28;;;;;;;12.49;100.00;98849.13;2608571;28;20119;-84
2023/07/07 05:05:11;;;;;;;4.95;3.80;;;;;;;12.55;100.00;98862.06;2608401;28;20051;-85
2023/07/07 05:06:28;;;;;;;6.95;3.70;;;;;;;12.56;100.00;98848.03;2608159;28;20473;-84
2023/07/07 05:07:44;;;;;;;8.02;4.20;;;;;;;12.62;100.00;98843.50;2610455;28;20053;-85
2023/07/07 05:09:01;;;;;;;6.07;4.25;;;;;;;12.72;100.00;98844.97;2610520;28;20048;-84
2023/07/07 05:10:16;;;;;;;6.35;4.10;;;;;;;12.84;100.00;98838.47;2610398;28;20127;-84
2023/07/07 05:11:33;;;;;;;5.30;4.05;;;;;;;12.84;100.00;98843.72;2610599;28;20053;-85
2023/07/07 05:12:48;;;;;;;7.95;4.15;;;;;;;12.88;100.00;98849.75;2610646;28;20099;-85
2023/07/07 05:14:04;;;;;;;9.48;4.20;;;;;;;13.03;100.00;98851.00;2610543;28;20100;-85
2023/07/07 05:15:20;;;;;;;5.82;3.90;;;;;;;13.04;100.00;98850.97;2610225;28;20045;-85
2023/07/07 05:16:37;;;;;;;6.90;3.92;;;;;;;13.12;100.00;98851.56;2610657;28;20049;-84
2023/07/07 05:17:53;;;;;;;5.55;4.03;;;;;;;13.22;100.00;98849.53;2610720;28;20045;-84
2023/07/07 05:19:09;;;;;;;5.50;4.05;;;;;;;13.30;100.00;98849.28;2610641;28;20332;-84
2023/07/07 05:20:24;;;;;;;6.63;3.97;;;;;;;13.32;100.00;98851.84;2610103;28;20057;-85
2023/07/07 05:21:40;;;;;;;5.75;3.83;;;;;;;13.45;100.00;98852.34;2610262;28;20259;-85
2023/07/07 05:22:56;;;;;;;4.93;3.72;;;;;;;13.50;100.00;98853.06;2610418;28;20068;-85
2023/07/07 05:24:11;;;;;;;5.50;4.07;;;;;;;13.38;100.00;98847.25;2610441;28;20053;-84
2023/07/07 05:25:26;;;;;;;6.57;3.90;;;;;;;13.50;100.00;98842.53;2610464;28;20053;-85
2023/07/07 05:26:42;;;;;;;4.18;3.47;;;;;;;13.55;100.00;98846.72;2610453;28;20492;-84
2023/07/07 05:27:58;;;;;;;5.82;4.03;;;;;;;13.63;100.00;98845.63;2610563;28;20546;-84
2023/07/07 05:29:13;;;;;;;6.15;4.10;;;;;;;13.90;100.00;98848.19;2610389;28;20098;-84
2023/07/07 05:30:29;;;;;;;5.03;4.05;;;;;;;13.88;100.00;98852.66;2610214;28;20040;-85
2023/07/07 05:31:44;;;;;;;7.03;4.25;;;;;;;14.02;100.00;98847.75;2609455;28;20208;-85
2023/07/07 05:33:00;;;;;;;5.90;4.03;;;;;;;14.06;100.00;98851.16;2609890;28;20576;-85
2023/07/07 05:34:16;;;;;;;6.10;3.97;;;;;;;14.12;100.00;98845.66;2610285;28;20045;-84
2023/07/07 05:35:32;;;;;;;5.43;4.03;;;;;;;13.95;100.00;98857.63;2610055;28;20067;-85
2023/07/07 05:36:47;;;;;;;5.50;3.70;;;;;;;14.10;100.00;98848.34;2610472;28;20049;-86
2023/07/07 05:38:03;;;;;;;6.90;3.60;;;;;;;14.15;100.00;98856.09;2610319;28;20131;-85
2023/07/07 05:39:18;;;;;;;4.50;3.35;;;;;;;14.15;100.00;98860.47;2610349;28;20048;-86
2023/07/07 05:40:34;;;;;;;5.30;3.35;;;;;;;14.45;100.00;98863.78;2610279;28;20485;-84
2023/07/07 05:41:49;;;;;;;6.55;3.88;;;;;;;14.59;100.00;98860.59;2610504;28;20045;-85
2023/07/07 05:43:05;;;;;;;5.38;3.80;;;;;;;14.69;100.00;98869.06;2610258;28;20079;-85
2023/07/07 05:44:20;;;;;;;5.90;3.17;;;;;;;14.55;100.00;98865.16;2610049;28;20526;-84
2023/07/07 05:45:36;;;;;;;5.90;3.47;;;;;;;14.68;100.00;98869.97;2610285;28;20515;-85
2023/07/07 05:46:51;;;;;;;5.90;3.72;;;;;;;14.70;100.00;98865.50;2610373;28;20518;-85
2023/07/07 05:48:08;;;;;;;4.85;4.05;;;;;;;14.82;100.00;98864.19;2609988;28;20049;-85
2023/07/07 05:49:23;;;;;;;7.82;3.92;;;;;;;14.90;100.00;98861.25;2610188;28;20079;-85
2023/07/07 05:50:41;;;;;;;6.25;3.42;;;;;;;15.03;100.00;98861.66;2610378;28;20052;-85
2023/07/07 05:51:56;;;;;;;9.10;3.97;;;;;;;15.07;100.00;98866.72;2610110;28;20041;-87
2023/07/07 05:53:12;;;;;;;5.22;3.80;;;;;;;15.12;100.00;98869.16;2609987;28;20072;-84
2023/07/07 05:54:28;;;;;;;4.65;3.30;;;;;;;15.21;100.00;98863.53;2610085;28;20049;-86
2023/07/07 05:55:46;;;;;;;5.18;4.10;;;;;;;15.28;100.00;98864.16;2610207;28;20053;-85
2023/07/07 05:57:02;;;;;;;5.18;3.60;;;;;;;15.29;100.00;98863.22;2610148;28;20492;-86
2023/07/07 05:58:18;;;;;;;4.40;3.55;;;;;;;15.41;100.00;98867.13;2606483;28;20069;-85
2023/07/07 05:59:34;;;;;;;4.13;3.33;;;;;;;15.62;100.00;98867.19;2607710;28;20282;-85
2023/07/07 06:00:49;;;;;;;3.97;3.35;;;;;;;15.60;97.26;98869.88;2610330;28;20053;-85
2023/07/07 06:02:05;;;;;;;4.43;3.45;;;;;;;15.74;96.02;98865.78;2610151;28;20048;-85